createdAt,value
2019-05-17T00:00:49.661Z,6.70
2019-05-17T00:03:20.099Z,6.60
2019-05-17T00:05:50.527Z,6.50
2019-05-17T00:08:33.684Z,6.50
2019-05-17T00:10:53.205Z,6.40
2019-05-17T00:13:23.559Z,6.40
2019-05-17T00:15:56.455Z,6.40
2019-05-17T00:18:26.567Z,6.30
2019-05-17T00:20:57.159Z,6.20
2019-05-17T00:23:27.589Z,6.20
2019-05-17T00:25:58.024Z,6.10
2019-05-17T00:28:28.544Z,6.10
2019-05-17T00:30:58.976Z,6.00
2019-05-17T00:33:29.451Z,5.90
2019-05-17T00:35:59.810Z,5.90
2019-05-17T00:38:30.266Z,5.80
2019-05-17T00:41:00.721Z,5.90
2019-05-17T00:43:31.236Z,5.80
2019-05-17T00:46:01.550Z,5.80
2019-05-17T00:48:32.070Z,5.70
2019-05-17T00:51:02.609Z,5.70
2019-05-17T00:53:33.075Z,5.60
2019-05-17T00:56:03.439Z,5.50
2019-05-17T00:58:33.835Z,5.60
2019-05-17T01:01:04.155Z,5.60
2019-05-17T01:03:36.311Z,5.70
2019-05-17T01:06:06.688Z,5.60
2019-05-17T01:08:37.437Z,5.70
2019-05-17T01:11:07.878Z,5.60
2019-05-17T01:13:38.304Z,5.50
2019-05-17T01:16:08.723Z,5.50
2019-05-17T01:18:39.183Z,5.40
2019-05-17T01:21:09.684Z,5.40
2019-05-17T01:23:40.040Z,5.30
2019-05-17T01:26:10.484Z,5.10
2019-05-17T01:28:40.848Z,5.20
2019-05-17T01:31:11.170Z,5.30
2019-05-17T01:33:41.537Z,5.40
2019-05-17T01:36:11.967Z,5.40
2019-05-17T01:38:42.423Z,5.40
2019-05-17T01:41:12.753Z,5.40
2019-05-17T01:43:43.221Z,5.30
2019-05-17T01:46:13.651Z,5.30
2019-05-17T01:48:44.061Z,5.30
2019-05-17T01:51:16.750Z,5.20
2019-05-17T01:53:47.079Z,5.30
2019-05-17T01:56:17.527Z,5.20
2019-05-17T01:58:48.042Z,5.20
2019-05-17T02:01:18.473Z,5.20
2019-05-17T02:03:48.934Z,5.20
2019-05-17T02:06:19.360Z,5.10
2019-05-17T02:08:49.769Z,5.00
2019-05-17T02:11:20.170Z,4.90
2019-05-17T02:13:50.487Z,4.90
2019-05-17T02:16:20.907Z,4.90
2019-05-17T02:18:53.998Z,4.90
2019-05-17T02:21:24.476Z,5.00
2019-05-17T02:23:57.015Z,4.90
2019-05-17T02:26:27.083Z,4.80
2019-05-17T02:28:57.463Z,4.80
2019-05-17T02:31:28.745Z,4.80
2019-05-17T02:33:59.179Z,4.80
2019-05-17T02:36:29.617Z,4.80
2019-05-17T02:39:03.342Z,4.70
2019-05-17T02:41:33.292Z,4.60
2019-05-17T02:44:03.915Z,4.60
2019-05-17T02:46:34.298Z,4.50
2019-05-17T02:49:04.704Z,4.50
2019-05-17T02:51:35.106Z,4.50
2019-05-17T02:54:05.561Z,4.40
2019-05-17T02:56:36.033Z,4.40
2019-05-17T02:59:06.513Z,4.30
2019-05-17T03:01:36.987Z,4.30
2019-05-17T03:04:07.479Z,4.20
2019-05-17T03:06:37.943Z,4.10
2019-05-17T03:09:08.430Z,4.10
2019-05-17T03:11:38.837Z,4.10
2019-05-17T03:14:12.473Z,4.10
2019-05-17T03:16:43.101Z,4.20
2019-05-17T03:19:13.835Z,4.20
2019-05-17T03:21:44.274Z,4.10
2019-05-17T03:24:14.762Z,4.10
2019-05-17T03:26:45.211Z,4.10
2019-05-17T03:29:15.590Z,4.10
2019-05-17T03:31:57.489Z,4.00
2019-05-17T03:34:18.911Z,4.00
2019-05-17T03:36:49.270Z,4.00
2019-05-17T03:39:22.507Z,4.00
2019-05-17T03:41:53.552Z,4.10
2019-05-17T03:44:23.846Z,4.20
2019-05-17T03:46:54.274Z,4.20
2019-05-17T03:49:24.784Z,4.30
2019-05-17T03:51:55.288Z,4.30
2019-05-17T03:54:25.685Z,4.40
2019-05-17T03:56:56.106Z,4.40
2019-05-17T03:59:26.677Z,4.50
2019-05-17T04:01:57.078Z,4.50
2019-05-17T04:04:27.476Z,4.60
2019-05-17T04:06:57.851Z,4.70
2019-05-17T04:09:28.295Z,4.70
2019-05-17T04:11:58.936Z,4.90
2019-05-17T04:14:33.326Z,4.90
2019-05-17T04:17:03.006Z,5.10
2019-05-17T04:19:33.898Z,5.20
2019-05-17T04:22:04.403Z,5.40
2019-05-17T04:24:34.654Z,5.50
2019-05-17T04:27:05.079Z,5.70
2019-05-17T04:29:35.490Z,5.90
2019-05-17T04:32:05.880Z,6.10
2019-05-17T04:34:36.297Z,6.20
2019-05-17T04:37:06.699Z,6.40
2019-05-17T04:39:37.070Z,6.60
2019-05-17T04:42:07.581Z,6.70
2019-05-17T04:44:37.853Z,6.80
2019-05-17T04:47:08.287Z,7.00
2019-05-17T04:49:38.773Z,7.00
2019-05-17T04:52:09.205Z,7.10
2019-05-17T04:54:42.289Z,7.20
2019-05-17T04:57:13.099Z,7.20
2019-05-17T04:59:43.773Z,7.30
2019-05-17T05:02:14.320Z,7.40
2019-05-17T05:04:44.782Z,7.50
2019-05-17T05:07:15.580Z,7.50
2019-05-17T05:09:46.239Z,7.60
2019-05-17T05:12:16.709Z,7.70
2019-05-17T05:14:47.061Z,7.80
2019-05-17T05:17:17.447Z,7.90
2019-05-17T05:19:47.833Z,8.00
2019-05-17T05:22:18.390Z,8.10
2019-05-17T05:24:48.793Z,8.20
2019-05-17T05:27:19.313Z,8.40
2019-05-17T05:29:52.047Z,8.40
2019-05-17T05:32:22.129Z,8.60
2019-05-17T05:34:52.743Z,8.70
2019-05-17T05:37:23.353Z,8.80
2019-05-17T05:39:54.666Z,8.80
2019-05-17T05:42:25.184Z,8.90
2019-05-17T05:44:55.694Z,9.00
2019-05-17T05:47:25.970Z,9.20
2019-05-17T05:49:56.427Z,9.20
2019-05-17T05:52:45.924Z,9.40
2019-05-17T05:55:16.340Z,9.40
2019-05-17T05:57:46.947Z,9.50
2019-05-17T06:00:18.318Z,9.60
2019-05-17T06:02:48.661Z,9.80
2019-05-17T06:05:21.792Z,9.90
2019-05-17T06:07:52.209Z,10.10
2019-05-17T06:10:22.872Z,10.20
2019-05-17T06:12:53.259Z,10.30
2019-05-17T06:15:23.825Z,10.40
2019-05-17T06:17:54.287Z,10.30
2019-05-17T06:20:24.700Z,10.40
2019-05-17T06:22:55.107Z,10.60
2019-05-17T06:25:25.572Z,10.50
2019-05-17T06:27:55.912Z,10.80
2019-05-17T06:30:26.511Z,10.90
2019-05-17T06:32:57.010Z,11.00
2019-05-17T06:35:27.488Z,11.20
2019-05-17T06:37:58.317Z,11.30
2019-05-17T06:40:28.751Z,11.50
2019-05-17T06:43:04.194Z,11.50
2019-05-17T06:45:33.071Z,11.70
2019-05-17T06:48:03.549Z,11.80
2019-05-17T06:50:33.970Z,11.90
2019-05-17T06:53:04.425Z,12.00
2019-05-17T06:55:34.692Z,12.10
2019-05-17T06:58:05.066Z,12.50
2019-05-17T07:00:35.529Z,12.80
2019-05-17T07:03:05.994Z,13.10
2019-05-17T07:05:40.207Z,13.30
2019-05-17T07:08:10.839Z,13.50
2019-05-17T07:10:41.453Z,13.80
2019-05-17T07:13:11.991Z,13.60
2019-05-17T07:15:47.276Z,13.50
2019-05-17T07:18:14.532Z,13.70
2019-05-17T07:20:45.008Z,13.90
2019-05-17T07:23:15.266Z,13.80
2019-05-17T07:25:45.722Z,14.00
2019-05-17T07:28:16.048Z,13.90
2019-05-17T07:30:46.474Z,13.60
2019-05-17T07:33:16.932Z,13.90
2019-05-17T07:35:47.416Z,14.30
2019-05-17T07:38:19.913Z,14.20
2019-05-17T07:40:50.355Z,14.20
2019-05-17T07:43:21.014Z,14.60
2019-05-17T07:45:51.409Z,15.00
2019-05-17T07:48:21.866Z,15.20
2019-05-17T07:50:52.260Z,15.70
2019-05-17T07:53:22.733Z,15.90
2019-05-17T07:55:53.136Z,15.70
2019-05-17T07:58:23.695Z,15.50
2019-05-17T08:00:54.150Z,15.60
2019-05-17T08:03:25.058Z,15.60
2019-05-17T08:05:55.634Z,16.00
2019-05-17T08:08:26.148Z,16.20
2019-05-17T08:10:56.535Z,16.50
2019-05-17T08:13:31.313Z,16.60
2019-05-17T08:15:59.594Z,16.60
2019-05-17T08:18:30.092Z,16.70
2019-05-17T08:21:00.584Z,16.90
2019-05-17T08:23:31.027Z,17.20
2019-05-17T08:26:01.531Z,17.20
2019-05-17T08:28:31.978Z,17.10
2019-05-17T08:31:02.461Z,17.40
2019-05-17T08:33:33.031Z,17.70
2019-05-17T08:36:03.487Z,18.30
2019-05-17T08:38:33.935Z,18.00
2019-05-17T08:41:04.349Z,17.90
2019-05-17T08:43:43.163Z,18.00
2019-05-17T08:46:06.987Z,18.10
2019-05-17T08:48:37.473Z,18.00
2019-05-17T08:51:10.578Z,18.00
2019-05-17T08:53:40.152Z,17.90
2019-05-17T08:56:10.577Z,18.10
2019-05-17T08:58:41.111Z,18.10
2019-05-17T09:01:11.542Z,18.10
2019-05-17T09:03:42.001Z,17.90
2019-05-17T09:06:12.884Z,18.30
2019-05-17T09:08:43.435Z,18.90
2019-05-17T09:11:13.893Z,18.70
2019-05-17T09:13:55.596Z,19.10
2019-05-17T09:16:16.462Z,18.90
2019-05-17T09:18:47.171Z,19.40
2019-05-17T09:21:17.681Z,19.40
2019-05-17T09:23:50.218Z,20.10
2019-05-17T09:26:20.371Z,20.20
2019-05-17T09:28:50.678Z,20.50
2019-05-17T09:31:21.063Z,20.80
2019-05-17T09:33:51.559Z,20.50
2019-05-17T09:36:21.944Z,20.80
2019-05-17T09:38:52.406Z,20.90
2019-05-17T09:41:22.651Z,20.70
2019-05-17T09:43:53.096Z,20.60
2019-05-17T09:46:23.421Z,20.50
2019-05-17T09:48:53.828Z,20.70
2019-05-17T09:51:24.387Z,21.00
2019-05-17T09:53:54.675Z,20.80
2019-05-17T09:56:25.099Z,20.90
2019-05-17T09:58:55.619Z,20.90
2019-05-17T10:01:26.155Z,21.20
2019-05-17T10:03:56.674Z,20.90
2019-05-17T10:06:27.136Z,21.40
2019-05-17T10:09:00.054Z,21.70
2019-05-17T10:11:30.777Z,22.10
2019-05-17T10:14:01.531Z,22.10
2019-05-17T10:16:31.935Z,22.10
2019-05-17T10:19:02.493Z,21.60
2019-05-17T10:21:32.949Z,21.70
2019-05-17T10:24:03.407Z,21.70
2019-05-17T10:26:33.794Z,22.20
2019-05-17T10:29:04.378Z,21.80
2019-05-17T10:31:34.772Z,22.20
2019-05-17T10:34:05.214Z,22.70
2019-05-17T10:36:35.746Z,22.50
2019-05-17T10:39:09.851Z,22.50
2019-05-17T10:41:40.620Z,22.30
2019-05-17T10:44:11.270Z,22.10
2019-05-17T10:46:41.746Z,21.90
2019-05-17T10:49:12.114Z,22.40
2019-05-17T10:51:42.537Z,22.70
2019-05-17T10:54:13.022Z,23.20
2019-05-17T10:56:43.495Z,23.10
2019-05-17T10:59:14.001Z,23.60
2019-05-17T11:01:44.455Z,24.20
2019-05-17T11:04:14.863Z,24.00
2019-05-17T11:06:45.385Z,23.70
2019-05-17T11:09:15.862Z,23.60
2019-05-17T11:11:46.181Z,24.00
2019-05-17T11:14:16.651Z,24.00
2019-05-17T11:16:47.097Z,24.60
2019-05-17T11:19:17.534Z,25.00
2019-05-17T11:21:48.053Z,25.00
2019-05-17T11:24:18.455Z,25.50
2019-05-17T11:26:48.894Z,25.30
2019-05-17T11:29:19.272Z,25.20
2019-05-17T11:31:49.731Z,25.20
2019-05-17T11:34:20.175Z,25.10
2019-05-17T11:36:50.589Z,24.40
2019-05-17T11:39:21.081Z,24.60
2019-05-17T11:41:51.457Z,24.60
2019-05-17T11:44:21.897Z,24.90
2019-05-17T11:46:52.266Z,24.90
2019-05-17T11:49:22.747Z,25.00
2019-05-17T11:51:53.252Z,25.10
2019-05-17T11:54:23.666Z,25.60
2019-05-17T11:56:54.129Z,25.90
2019-05-17T11:59:24.597Z,25.90
2019-05-17T12:01:54.975Z,25.60
2019-05-17T12:04:25.459Z,25.60
2019-05-17T12:06:55.925Z,25.80
2019-05-17T12:09:36.864Z,26.30
2019-05-17T12:11:58.398Z,25.80
2019-05-17T12:14:28.861Z,26.20
2019-05-17T12:16:59.232Z,26.40
2019-05-17T12:19:29.686Z,26.40
2019-05-17T12:22:00.243Z,26.70
2019-05-17T12:24:30.597Z,27.20
2019-05-17T12:27:01.030Z,27.30
2019-05-17T12:29:31.463Z,27.40
2019-05-17T12:32:01.922Z,27.40
2019-05-17T12:34:32.347Z,27.50
2019-05-17T12:37:02.769Z,26.80
2019-05-17T12:39:33.311Z,26.70
2019-05-17T12:42:03.844Z,26.80
2019-05-17T12:44:37.195Z,27.80
2019-05-17T12:47:06.499Z,28.40
2019-05-17T12:49:36.864Z,28.40
2019-05-17T12:52:07.356Z,28.20
2019-05-17T12:54:37.854Z,28.00
2019-05-17T12:57:08.283Z,28.50
2019-05-17T12:59:39.129Z,28.30
2019-05-17T13:02:12.310Z,29.00
2019-05-17T13:04:41.642Z,30.50
2019-05-17T13:07:12.116Z,31.00
2019-05-17T13:09:42.625Z,31.10
2019-05-17T13:12:13.016Z,31.10
2019-05-17T13:14:43.460Z,30.40
2019-05-17T13:17:14.010Z,30.30
2019-05-17T13:19:44.497Z,30.70
2019-05-17T13:22:14.848Z,30.40
2019-05-17T13:24:45.326Z,30.40
2019-05-17T13:27:15.779Z,30.40
2019-05-17T13:29:46.249Z,30.70
2019-05-17T13:32:16.733Z,30.30
2019-05-17T13:34:47.149Z,30.20
2019-05-17T13:37:17.486Z,28.90
2019-05-17T13:39:47.980Z,29.00
2019-05-17T13:42:18.444Z,27.90
2019-05-17T13:44:48.853Z,26.80
2019-05-17T13:47:19.274Z,25.30
2019-05-17T13:49:49.600Z,24.90
2019-05-17T13:52:20.137Z,24.50
2019-05-17T13:54:50.557Z,24.10
2019-05-17T13:57:21.113Z,23.40
2019-05-17T13:59:51.564Z,22.90
2019-05-17T14:02:21.931Z,22.70
2019-05-17T14:04:52.356Z,22.30
2019-05-17T14:07:22.832Z,22.10
2019-05-17T14:09:53.234Z,22.10
2019-05-17T14:12:23.658Z,21.80
2019-05-17T14:14:54.079Z,21.90
2019-05-17T14:17:24.484Z,21.80
2019-05-17T14:19:55.066Z,21.60
2019-05-17T14:22:25.629Z,22.00
2019-05-17T14:24:56.076Z,21.90
2019-05-17T14:27:26.511Z,22.20
2019-05-17T14:29:56.980Z,22.20
2019-05-17T14:32:27.306Z,22.40
2019-05-17T14:34:57.717Z,22.80
2019-05-17T14:37:28.186Z,23.20
2019-05-17T14:39:58.610Z,23.70
2019-05-17T14:42:29.047Z,24.00
2019-05-17T14:44:59.470Z,24.00
2019-05-17T14:47:29.935Z,23.60
2019-05-17T14:50:00.417Z,23.20
2019-05-17T14:52:30.825Z,23.40
2019-05-17T14:55:01.320Z,23.30
2019-05-17T14:57:31.759Z,23.50
2019-05-17T15:00:02.247Z,23.20
2019-05-17T15:02:32.662Z,23.00
2019-05-17T15:05:03.343Z,22.70
2019-05-17T15:07:33.887Z,22.50
2019-05-17T15:10:04.570Z,22.60
2019-05-17T15:12:35.025Z,22.60
2019-05-17T15:15:05.622Z,22.60
2019-05-17T15:17:36.026Z,22.40
2019-05-17T15:20:07.954Z,22.30
2019-05-17T15:22:38.470Z,22.20
2019-05-17T15:25:09.383Z,21.90
2019-05-17T15:27:39.739Z,22.10
2019-05-17T15:30:10.690Z,22.20
2019-05-17T15:32:41.038Z,22.40
2019-05-17T15:35:11.516Z,22.40
2019-05-17T15:37:41.961Z,22.60
2019-05-17T15:40:12.656Z,22.60
2019-05-17T15:42:44.602Z,22.30
2019-05-17T15:45:15.416Z,22.40
2019-05-17T15:47:45.921Z,22.80
2019-05-17T15:50:18.003Z,22.90
2019-05-17T15:52:48.455Z,22.70
2019-05-17T15:55:19.386Z,22.60
2019-05-17T15:57:49.865Z,22.40
2019-05-17T16:00:20.456Z,22.70
2019-05-17T16:02:50.899Z,22.90
2019-05-17T16:05:21.310Z,23.20
2019-05-17T16:07:51.608Z,22.70
2019-05-17T16:10:22.163Z,22.50
2019-05-17T16:13:02.593Z,22.40
2019-05-17T16:15:24.739Z,22.10
2019-05-17T16:17:55.011Z,21.80
2019-05-17T16:20:25.481Z,21.40
2019-05-17T16:22:56.030Z,21.30
2019-05-17T16:25:26.467Z,21.20
2019-05-17T16:27:56.904Z,21.20
2019-05-17T16:30:27.326Z,21.30
2019-05-17T16:32:57.798Z,21.50
2019-05-17T16:35:28.275Z,21.40
2019-05-17T16:37:58.800Z,21.40
2019-05-17T16:40:29.327Z,21.30
2019-05-17T16:42:59.748Z,21.40
2019-05-17T16:45:30.193Z,22.00
2019-05-17T16:48:00.625Z,22.50
2019-05-17T16:50:30.985Z,22.90
2019-05-17T16:53:05.808Z,23.20
2019-05-17T16:55:33.911Z,23.10
2019-05-17T16:58:04.401Z,23.70
2019-05-17T17:00:37.000Z,23.40
2019-05-17T17:03:07.736Z,23.50
2019-05-17T17:05:38.159Z,23.50
2019-05-17T17:08:08.551Z,22.90
2019-05-17T17:10:39.019Z,22.60
2019-05-17T17:13:09.434Z,22.30
2019-05-17T17:15:39.834Z,21.90
2019-05-17T17:18:10.268Z,21.50
2019-05-17T17:20:40.726Z,21.20
2019-05-17T17:23:11.141Z,20.90
2019-05-17T17:25:41.612Z,20.70
2019-05-17T17:28:12.082Z,20.30
2019-05-17T17:30:42.514Z,20.00
2019-05-17T17:33:12.981Z,19.90
2019-05-17T17:35:43.458Z,19.50
2019-05-17T17:38:13.886Z,19.30
2019-05-17T17:40:44.322Z,19.30
2019-05-17T17:43:16.299Z,19.20
2019-05-17T17:45:46.794Z,19.10
2019-05-17T17:48:17.230Z,19.00
2019-05-17T17:50:47.705Z,18.90
2019-05-17T17:53:18.135Z,18.70
2019-05-17T17:55:48.611Z,18.70
2019-05-17T17:58:19.104Z,18.70
2019-05-17T18:00:49.484Z,18.50
2019-05-17T18:03:19.858Z,18.40
2019-05-17T18:05:50.305Z,18.40
2019-05-17T18:08:20.679Z,18.40
2019-05-17T18:10:51.139Z,18.10
2019-05-17T18:13:21.612Z,18.00
2019-05-17T18:15:51.955Z,17.90
2019-05-17T18:18:22.210Z,17.80
2019-05-17T18:20:52.708Z,17.70
2019-05-17T18:23:23.672Z,17.60
2019-05-17T18:25:54.198Z,17.40
2019-05-17T18:28:24.573Z,17.30
2019-05-17T18:30:55.055Z,17.20
2019-05-17T18:33:25.432Z,17.20
2019-05-17T18:35:55.776Z,17.10
2019-05-17T18:38:29.147Z,17.00
2019-05-17T18:40:59.628Z,17.00
2019-05-17T18:43:30.062Z,16.90
2019-05-17T18:46:00.454Z,16.80
2019-05-17T18:48:30.944Z,16.70
2019-05-17T18:51:01.355Z,16.60
2019-05-17T18:53:31.806Z,16.50
2019-05-17T18:56:02.282Z,16.40
2019-05-17T18:58:32.712Z,16.30
2019-05-17T19:01:03.164Z,16.30
2019-05-17T19:03:33.589Z,16.20
2019-05-17T19:06:04.083Z,16.20
2019-05-17T19:08:34.606Z,16.10
2019-05-17T19:11:05.072Z,16.10
2019-05-17T19:13:35.425Z,16.10
2019-05-17T19:16:05.864Z,16.00
2019-05-17T19:18:36.375Z,15.90
2019-05-17T19:21:06.845Z,15.90
2019-05-17T19:23:37.249Z,15.80
2019-05-17T19:26:07.613Z,15.80
2019-05-17T19:28:37.981Z,15.70
2019-05-17T19:31:08.435Z,15.70
2019-05-17T19:33:38.895Z,15.70
2019-05-17T19:36:09.336Z,15.60
2019-05-17T19:38:39.727Z,15.50
2019-05-17T19:41:10.159Z,15.40
2019-05-17T19:43:40.554Z,15.30
2019-05-17T19:46:11.010Z,15.40
2019-05-17T19:48:41.358Z,15.30
2019-05-17T19:51:11.797Z,15.30
2019-05-17T19:53:42.199Z,15.40
2019-05-17T19:56:12.659Z,15.40
2019-05-17T19:58:42.973Z,15.30
2019-05-17T20:01:13.350Z,15.20
2019-05-17T20:03:43.777Z,15.10
2019-05-17T20:06:14.177Z,15.00
2019-05-17T20:08:44.567Z,14.90
2019-05-17T20:11:14.978Z,14.90
2019-05-17T20:13:45.363Z,14.80
2019-05-17T20:16:15.846Z,14.70
2019-05-17T20:18:46.165Z,14.50
2019-05-17T20:21:16.630Z,14.40
2019-05-17T20:23:47.120Z,14.30
2019-05-17T20:26:17.500Z,14.30
2019-05-17T20:28:47.941Z,14.10
2019-05-17T20:31:18.298Z,14.10
2019-05-17T20:33:48.784Z,13.90
2019-05-17T20:36:19.205Z,13.90
2019-05-17T20:38:49.610Z,13.90
2019-05-17T20:41:39.120Z,13.80
2019-05-17T20:44:09.573Z,13.90
2019-05-17T20:46:39.915Z,13.80
2019-05-17T20:49:10.201Z,13.90
2019-05-17T20:51:40.722Z,13.90
2019-05-17T20:54:11.119Z,14.00
2019-05-17T20:56:41.589Z,14.10
2019-05-17T20:59:12.004Z,14.10
2019-05-17T21:01:42.489Z,14.10
2019-05-17T21:04:12.878Z,14.00
2019-05-17T21:06:43.209Z,13.90
2019-05-17T21:09:13.531Z,13.90
2019-05-17T21:11:43.984Z,13.80
2019-05-17T21:14:14.388Z,13.80
2019-05-17T21:16:44.761Z,13.70
2019-05-17T21:19:15.237Z,13.60
2019-05-17T21:21:45.655Z,13.60
2019-05-17T21:24:16.170Z,13.70
2019-05-17T21:26:46.700Z,13.70
2019-05-17T21:29:17.174Z,13.70
2019-05-17T21:31:47.536Z,13.70
2019-05-17T21:34:18.015Z,13.70
2019-05-17T21:36:48.447Z,13.60
2019-05-17T21:39:21.452Z,13.60
2019-05-17T21:41:51.095Z,13.60
2019-05-17T21:44:21.577Z,13.60
2019-05-17T21:47:03.801Z,13.70
2019-05-17T21:49:24.175Z,13.70
2019-05-17T21:51:54.652Z,13.80
2019-05-17T21:54:24.983Z,13.70
2019-05-17T21:56:55.363Z,13.70
2019-05-17T21:59:25.835Z,13.70
2019-05-17T22:01:57.026Z,13.60
2019-05-17T22:04:27.346Z,13.60
2019-05-17T22:06:57.811Z,13.70
2019-05-17T22:09:28.244Z,13.70
2019-05-17T22:12:02.130Z,13.70
2019-05-17T22:14:32.519Z,13.70
2019-05-17T22:17:02.940Z,13.50
2019-05-17T22:19:33.304Z,13.50
2019-05-17T22:22:03.682Z,13.50
2019-05-17T22:24:34.074Z,13.40
2019-05-17T22:27:04.531Z,13.30
2019-05-17T22:29:34.863Z,13.30
2019-05-17T22:32:05.298Z,13.20
2019-05-17T22:34:35.641Z,13.20
2019-05-17T22:37:07.327Z,13.20
2019-05-17T22:39:37.824Z,13.20
2019-05-17T22:42:08.243Z,13.20
2019-05-17T22:44:38.695Z,13.20
2019-05-17T22:47:09.197Z,13.20
2019-05-17T22:49:39.547Z,13.20
2019-05-17T22:52:10.006Z,13.10
2019-05-17T22:54:40.409Z,13.20
2019-05-17T22:57:10.797Z,13.10
2019-05-17T22:59:41.184Z,13.10
2019-05-17T23:02:11.511Z,13.00
2019-05-17T23:04:42.026Z,12.90
2019-05-17T23:07:12.503Z,12.90
2019-05-17T23:09:42.871Z,12.90
2019-05-17T23:12:13.343Z,12.90
2019-05-17T23:14:43.672Z,12.80
2019-05-17T23:17:14.155Z,12.80
2019-05-17T23:19:44.699Z,12.80
2019-05-17T23:22:15.137Z,12.80
2019-05-17T23:24:45.742Z,12.70
2019-05-17T23:27:16.192Z,12.60
2019-05-17T23:29:46.575Z,12.60
2019-05-17T23:32:16.861Z,12.50
2019-05-17T23:34:48.168Z,12.30
2019-05-17T23:37:18.625Z,12.20
2019-05-17T23:39:49.471Z,11.90
2019-05-17T23:42:19.850Z,11.90
2019-05-17T23:44:50.307Z,11.90
2019-05-17T23:47:20.734Z,11.90
2019-05-17T23:49:51.077Z,11.80
2019-05-17T23:52:21.489Z,11.80
2019-05-17T23:54:51.825Z,11.70
2019-05-17T23:57:22.273Z,11.50
2019-05-17T23:59:52.713Z,11.30
